Time;durP1;ratioP1;P1;durP2;ratioP2;P2;SDS_P1;SDS_P2;PMS_P1;PMS_P2;Temp;Humidity;BMP_temperature;BMP_pressure;BME280_temperature;BME280_humidity;BME280_pressure;Samples;Min_cycle;Max_cycle;Signal;HPM_P1;HPM_P2
2023/05/17 00:02:06;;;;;;;6.67;3.43;;;9.10;99.90;;;;;;5042646;28;20832;-77
2023/05/17 00:04:33;;;;;;;7.07;3.00;;;9.00;99.90;;;;;;5041003;28;20449;-80
2023/05/17 00:07:00;;;;;;;8.73;4.53;;;9.10;99.90;;;;;;5053773;28;20902;-76
2023/05/17 00:09:27;;;;;;;7.97;3.43;;;9.00;99.90;;;;;;5046866;28;20444;-77
2023/05/17 00:11:55;;;;;;;5.03;3.03;;;9.00;99.90;;;;;;5048122;28;20477;-78
2023/05/17 00:14:22;;;;;;;7.47;3.30;;;8.90;99.90;;;;;;5053095;28;20457;-78
2023/05/17 00:16:51;;;;;;;7.40;3.30;;;8.90;99.90;;;;;;5050702;28;20460;-76
2023/05/17 00:19:18;;;;;;;7.07;3.77;;;8.90;99.90;;;;;;5048335;28;20891;-79
2023/05/17 00:21:45;;;;;;;6.20;3.20;;;8.90;99.90;;;;;;5039059;28;20454;-77
2023/05/17 00:24:11;;;;;;;10.37;4.47;;;8.90;99.90;;;;;;5035166;28;20968;-77
2023/05/17 00:26:38;;;;;;;9.37;4.40;;;8.80;99.90;;;;;;5034224;28;20461;-78
2023/05/17 00:29:06;;;;;;;6.17;4.40;;;8.80;99.90;;;;;;5037996;28;20479;-79
2023/05/17 00:31:33;;;;;;;7.70;3.37;;;8.70;99.90;;;;;;5038010;28;20454;-78
2023/05/17 00:34:00;;;;;;;12.37;4.17;;;8.70;99.90;;;;;;5051974;28;20448;-79
2023/05/17 00:36:27;;;;;;;7.87;3.67;;;8.70;99.90;;;;;;5040909;28;20458;-77
2023/05/17 00:38:53;;;;;;;5.60;3.47;;;8.70;99.90;;;;;;5034596;28;20482;-79
2023/05/17 00:41:20;;;;;;;6.60;4.50;;;8.70;99.90;;;;;;5040961;28;20464;-78
2023/05/17 00:43:47;;;;;;;8.47;3.70;;;8.70;99.90;;;;;;5042686;28;20474;-79
2023/05/17 00:46:15;;;;;;;6.63;3.67;;;8.70;99.90;;;;;;5036314;28;20461;-79
2023/05/17 00:48:44;;;;;;;7.03;3.67;;;8.70;99.90;;;;;;5043087;28;20834;-79
2023/05/17 00:51:13;;;;;;;4.07;2.90;;;8.70;99.90;;;;;;5046037;28;20466;-80
2023/05/17 00:53:40;;;;;;;7.50;3.20;;;8.60;99.90;;;;;;5049255;28;20497;-80
2023/05/17 00:56:07;;;;;;;5.07;3.07;;;8.60;99.90;;;;;;5047435;28;20463;-78
2023/05/17 00:58:35;;;;;;;10.13;3.40;;;8.60;99.90;;;;;;5043869;28;20492;-79
2023/05/17 01:01:02;;;;;;;4.73;2.53;;;8.60;99.90;;;;;;5036885;28;20454;-78
2023/05/17 01:03:30;;;;;;;10.13;3.50;;;8.50;99.90;;;;;;5053441;28;20447;-78
2023/05/17 01:05:57;;;;;;;5.97;2.60;;;8.50;99.90;;;;;;5042567;28;20464;-80
2023/05/17 01:08:24;;;;;;;3.60;2.27;;;8.60;99.90;;;;;;5045393;28;20479;-81
2023/05/17 01:11:00;;;;;;;8.60;3.37;;;8.50;99.90;;;;;;5036227;28;20460;-79
2023/05/17 01:13:35;;;;;;;12.60;3.00;;;8.60;99.90;;;;;;5040201;28;21300;-78
2023/05/17 01:16:13;;;;;;;5.70;2.93;;;8.50;99.90;;;;;;5035737;28;20439;-79
2023/05/17 01:18:44;;;;;;;6.50;3.17;;;8.40;99.90;;;;;;5052625;28;20484;-79
2023/05/17 01:21:27;;;;;;;9.50;3.80;;;8.40;99.90;;;;;;5043561;28;20456;-81
2023/05/17 01:24:03;;;;;;;8.10;4.03;;;8.40;99.90;;;;;;5038615;28;20452;-78
2023/05/17 01:26:42;;;;;;;11.27;3.63;;;8.40;99.90;;;;;;5049549;28;20458;-78
2023/05/17 01:29:10;;;;;;;9.50;4.30;;;8.50;99.90;;;;;;5053074;28;21071;-78
2023/05/17 01:31:38;;;;;;;8.30;4.20;;;8.50;99.90;;;;;;5042561;28;20455;-79
2023/05/17 01:34:07;;;;;;;7.20;3.50;;;8.40;99.90;;;;;;5036358;28;20586;-79
2023/05/17 01:36:34;;;;;;;6.73;4.30;;;8.40;99.90;;;;;;5041511;28;20470;-78
2023/05/17 01:39:00;;;;;;;12.00;4.30;;;8.40;99.90;;;;;;5040094;28;20479;-78
2023/05/17 01:41:33;;;;;;;8.03;4.00;;;8.40;99.90;;;;;;5038266;28;20456;-79
2023/05/17 01:44:11;;;;;;;6.33;3.00;;;8.30;99.90;;;;;;5051059;28;20451;-78
2023/05/17 01:46:40;;;;;;;7.90;2.87;;;8.30;99.90;;;;;;5045577;28;20546;-76
2023/05/17 01:49:12;;;;;;;9.20;4.07;;;8.30;99.90;;;;;;5045937;28;21013;-78
2023/05/17 01:51:45;;;;;;;5.67;2.90;;;8.20;99.90;;;;;;5039530;28;20458;-78
2023/05/17 01:54:13;;;;;;;9.60;3.97;;;8.20;99.90;;;;;;5043204;28;20502;-79
2023/05/17 01:56:46;;;;;;;4.70;3.50;;;8.20;99.90;;;;;;5043977;28;20459;-79
2023/05/17 01:59:20;;;;;;;6.20;3.30;;;8.20;99.90;;;;;;5035508;28;20477;-76
2023/05/17 02:01:48;;;;;;;6.43;3.50;;;8.20;99.90;;;;;;5042250;28;20894;-77
2023/05/17 02:04:15;;;;;;;6.97;3.90;;;8.20;99.90;;;;;;5031476;28;20466;-77
2023/05/17 02:06:41;;;;;;;5.77;3.30;;;8.10;99.90;;;;;;5035290;28;20462;-77
2023/05/17 02:09:08;;;;;;;6.10;4.17;;;8.10;99.90;;;;;;5042175;28;20476;-79
2023/05/17 02:11:36;;;;;;;8.97;3.73;;;8.00;99.90;;;;;;5033427;28;20450;-77
2023/05/17 02:14:03;;;;;;;4.50;3.23;;;8.00;99.90;;;;;;5040113;28;20492;-78
2023/05/17 02:16:31;;;;;;;6.40;3.93;;;8.00;99.90;;;;;;5035985;28;20451;-77
2023/05/17 02:18:58;;;;;;;11.37;4.73;;;8.00;99.90;;;;;;5048313;28;21029;-78
2023/05/17 02:21:25;;;;;;;5.40;4.53;;;8.00;99.90;;;;;;5048915;28;20454;-78
2023/05/17 02:23:51;;;;;;;10.30;3.90;;;7.90;99.90;;;;;;5050465;28;20455;-77
2023/05/17 02:26:18;;;;;;;6.90;3.77;;;8.00;99.90;;;;;;5044978;28;20459;-76
2023/05/17 02:28:45;;;;;;;5.20;3.40;;;7.90;99.90;;;;;;5053974;28;20501;-78
2023/05/17 02:31:12;;;;;;;6.03;3.50;;;7.90;99.90;;;;;;5034800;28;21008;-77
2023/05/17 02:33:40;;;;;;;6.50;3.93;;;7.80;99.90;;;;;;5046335;28;20490;-76
2023/05/17 02:36:07;;;;;;;10.47;4.03;;;7.80;99.90;;;;;;5045685;28;20839;-77
2023/05/17 02:38:34;;;;;;;5.83;3.53;;;7.80;99.90;;;;;;5042589;28;20475;-77
2023/05/17 02:41:02;;;;;;;7.13;3.97;;;7.80;99.90;;;;;;5035051;28;20452;-77
2023/05/17 02:43:29;;;;;;;7.97;4.80;;;7.70;99.90;;;;;;5050508;28;20446;-77
2023/05/17 02:45:55;;;;;;;7.87;4.80;;;7.80;99.90;;;;;;5054268;28;20532;-78
2023/05/17 02:48:22;;;;;;;6.03;3.43;;;7.80;99.90;;;;;;5036791;28;20480;-78
2023/05/17 02:50:50;;;;;;;8.20;4.30;;;7.80;99.90;;;;;;5049565;28;20831;-77
2023/05/17 02:53:17;;;;;;;7.00;4.30;;;7.70;99.90;;;;;;5036977;28;20480;-78
2023/05/17 02:55:44;;;;;;;7.13;4.33;;;7.70;99.90;;;;;;5034310;28;20445;-78
2023/05/17 02:58:11;;;;;;;8.67;4.40;;;7.80;99.90;;;;;;5048093;28;20484;-76
2023/05/17 03:00:37;;;;;;;9.17;4.53;;;7.80;99.90;;;;;;5048454;28;20527;-77
2023/05/17 03:03:04;;;;;;;9.10;4.53;;;7.90;99.90;;;;;;5046995;28;20459;-78
2023/05/17 03:05:33;;;;;;;8.20;4.70;;;8.00;99.90;;;;;;5035018;28;20444;-78
2023/05/17 03:08:01;;;;;;;8.73;4.23;;;8.10;99.90;;;;;;5033899;28;20478;-79
2023/05/17 03:10:28;;;;;;;9.73;4.20;;;8.30;99.90;;;;;;5046563;28;20455;-78
2023/05/17 03:12:54;;;;;;;8.43;4.90;;;8.30;99.90;;;;;;5046674;28;20477;-77
2023/05/17 03:15:22;;;;;;;7.73;4.77;;;8.50;99.90;;;;;;5044945;28;20460;-76
2023/05/17 03:17:49;;;;;;;9.37;4.43;;;8.60;99.90;;;;;;5040205;28;20489;-76
2023/05/17 03:20:16;;;;;;;7.67;4.10;;;8.70;99.90;;;;;;5044574;28;20449;-76
2023/05/17 03:22:42;;;;;;;8.03;4.13;;;8.80;99.90;;;;;;5039907;28;21243;-75
2023/05/17 03:25:11;;;;;;;10.83;4.43;;;8.90;99.90;;;;;;5034632;28;20462;-77
2023/05/17 03:27:37;;;;;;;7.10;4.43;;;9.00;99.90;;;;;;5043771;28;20493;-76
2023/05/17 03:30:05;;;;;;;10.40;4.40;;;9.10;99.90;;;;;;5042207;28;20462;-77
2023/05/17 03:32:32;;;;;;;7.90;4.53;;;9.20;99.90;;;;;;5042023;28;20458;-76
2023/05/17 03:34:59;;;;;;;14.20;5.67;;;9.20;99.90;;;;;;5051663;28;20461;-77
2023/05/17 03:37:26;;;;;;;7.77;4.50;;;9.30;99.90;;;;;;5043234;28;20479;-77
2023/05/17 03:39:52;;;;;;;11.03;5.00;;;9.30;99.90;;;;;;5037994;28;20836;-76
2023/05/17 03:42:21;;;;;;;8.93;4.20;;;9.40;99.90;;;;;;5051551;28;20454;-77
2023/05/17 03:44:47;;;;;;;10.50;4.80;;;9.40;99.90;;;;;;5035369;28;20474;-77
2023/05/17 03:47:14;;;;;;;6.00;4.27;;;9.50;99.90;;;;;;5045230;28;20474;-78
2023/05/17 03:49:41;;;;;;;14.03;4.83;;;9.50;99.90;;;;;;5034559;28;20831;-77
2023/05/17 03:52:08;;;;;;;8.63;4.00;;;9.60;99.90;;;;;;5042072;28;20466;-77
2023/05/17 03:54:35;;;;;;;9.90;4.70;;;9.70;99.90;;;;;;5036807;28;20482;-77
2023/05/17 03:57:02;;;;;;;8.90;4.70;;;9.80;99.90;;;;;;5048761;28;20835;-77
2023/05/17 03:59:30;;;;;;;12.10;4.43;;;9.80;99.90;;;;;;5091711;22;20498;-83
2023/05/17 04:01:57;;;;;;;9.73;4.60;;;9.90;99.90;;;;;;5076524;28;20458;-83
2023/05/17 04:04:24;;;;;;;10.33;4.53;;;9.90;99.90;;;;;;5076277;28;20449;-82
2023/05/17 04:06:51;;;;;;;11.10;5.50;;;9.90;99.90;;;;;;5079028;28;20461;-83
2023/05/17 04:09:18;;;;;;;8.77;4.70;;;10.00;99.90;;;;;;5092294;28;20465;-83
2023/05/17 04:11:45;;;;;;;9.83;5.27;;;10.00;99.90;;;;;;5096743;28;20541;-84
2023/05/17 04:14:12;;;;;;;12.03;5.23;;;10.00;99.90;;;;;;5099824;28;20585;-84
2023/05/17 04:16:40;;;;;;;9.40;4.40;;;10.10;99.90;;;;;;5095092;28;20461;-83
2023/05/17 04:19:07;;;;;;;9.50;4.47;;;10.10;99.90;;;;;;5099399;28;20478;-82
2023/05/17 04:21:34;;;;;;;10.97;4.50;;;10.20;99.90;;;;;;5098965;28;20457;-83
2023/05/17 04:24:01;;;;;;;13.90;5.17;;;10.20;99.90;;;;;;5093745;28;20500;-83
2023/05/17 04:26:29;;;;;;;11.93;4.80;;;10.30;99.90;;;;;;5098795;28;20508;-83
2023/05/17 04:28:56;;;;;;;10.00;4.90;;;10.30;99.90;;;;;;5096922;28;20474;-83
2023/05/17 04:31:23;;;;;;;6.73;5.23;;;10.40;99.90;;;;;;5097568;28;20450;-82
2023/05/17 04:33:51;;;;;;;14.63;5.90;;;10.50;99.90;;;;;;5098557;28;20566;-82
2023/05/17 04:36:17;;;;;;;9.37;5.00;;;10.50;99.90;;;;;;5093519;28;20454;-82
2023/05/17 04:38:45;;;;;;;10.20;5.57;;;10.60;99.90;;;;;;5099046;28;20470;-82
2023/05/17 04:41:12;;;;;;;13.70;5.40;;;10.60;99.90;;;;;;5094947;28;20466;-83
2023/05/17 04:43:39;;;;;;;13.53;5.40;;;10.60;99.90;;;;;;5099004;28;20977;-82
2023/05/17 04:46:06;;;;;;;17.07;6.30;;;10.60;99.90;;;;;;5099201;28;20465;-81
2023/05/17 04:48:33;;;;;;;9.10;4.63;;;10.40;99.90;;;;;;5092902;28;20473;-82
2023/05/17 04:51:03;;;;;;;9.37;4.27;;;10.30;99.90;;;;;;5098611;28;20451;-82
2023/05/17 04:53:30;;;;;;;13.13;5.20;;;10.30;99.90;;;;;;5095764;28;20485;-82
2023/05/17 04:55:57;;;;;;;9.23;4.73;;;10.20;99.90;;;;;;5097749;28;20457;-81
2023/05/17 04:58:24;;;;;;;10.13;4.40;;;10.10;99.90;;;;;;5097353;28;20490;-81
2023/05/17 05:00:51;;;;;;;14.27;6.07;;;10.10;99.90;;;;;;5093075;28;20465;-81
2023/05/17 05:03:18;;;;;;;13.37;5.10;;;10.00;99.90;;;;;;5097039;28;20866;-81
2023/05/17 05:05:44;;;;;;;14.93;5.63;;;9.90;99.90;;;;;;5093111;28;20458;-81
2023/05/17 05:08:13;;;;;;;10.83;4.33;;;9.90;99.90;;;;;;5096623;28;20470;-81
2023/05/17 05:10:39;;;;;;;15.20;5.30;;;9.90;99.90;;;;;;5100385;28;20835;-79
2023/05/17 05:13:06;;;;;;;15.27;5.17;;;9.90;99.90;;;;;;5093543;28;20472;-81
2023/05/17 05:15:33;;;;;;;14.03;5.40;;;9.90;99.90;;;;;;5097192;28;20549;-81
2023/05/17 05:18:00;;;;;;;10.33;5.37;;;9.90;99.90;;;;;;5093147;28;20529;-81
2023/05/17 05:20:27;;;;;;;12.60;5.83;;;10.00;99.90;;;;;;5097386;28;20456;-82
2023/05/17 05:22:53;;;;;;;14.73;5.00;;;10.00;99.90;;;;;;5096900;28;20446;-83
2023/05/17 05:25:21;;;;;;;9.60;5.90;;;10.00;99.90;;;;;;5091321;28;20536;-83
2023/05/17 05:27:48;;;;;;;13.83;5.07;;;10.00;99.90;;;;;;5092843;28;20537;-82
2023/05/17 05:30:20;;;;;;;9.80;4.70;;;10.00;99.90;;;;;;5090688;28;20467;-80
2023/05/17 05:32:48;;;;;;;17.77;5.50;;;10.00;99.90;;;;;;5094997;28;20454;-79
2023/05/17 05:35:15;;;;;;;10.07;4.87;;;10.00;99.90;;;;;;5095504;28;20480;-79
2023/05/17 05:37:41;;;;;;;12.30;6.13;;;10.00;99.90;;;;;;5089543;28;20454;-80
2023/05/17 05:40:09;;;;;;;11.73;5.07;;;10.10;99.90;;;;;;5095716;28;20472;-79
2023/05/17 05:42:38;;;;;;;20.30;6.43;;;10.10;99.90;;;;;;5089126;28;20848;-79
2023/05/17 05:45:05;;;;;;;11.67;5.27;;;10.00;99.90;;;;;;5095515;28;20449;-79
2023/05/17 05:47:32;;;;;;;14.33;5.10;;;10.10;99.90;;;;;;5093713;28;20479;-80
2023/05/17 05:49:59;;;;;;;10.27;4.77;;;10.10;99.90;;;;;;5095983;28;20467;-80
2023/05/17 05:52:26;;;;;;;8.77;4.63;;;10.10;99.90;;;;;;5097047;28;20830;-81
2023/05/17 05:54:53;;;;;;;11.70;5.13;;;10.10;99.90;;;;;;5095079;28;20484;-81
2023/05/17 05:57:19;;;;;;;12.53;5.20;;;10.20;99.90;;;;;;5096389;28;20468;-81
2023/05/17 05:59:48;;;;;;;14.90;4.33;;;10.20;99.90;;;;;;5093138;28;20488;-81
2023/05/17 06:02:16;;;;;;;11.20;4.17;;;10.30;99.90;;;;;;5098053;28;20459;-80
2023/05/17 06:04:47;;;;;;;10.13;3.43;;;10.30;99.90;;;;;;5095641;28;20503;-79
2023/05/17 06:07:13;;;;;;;9.67;3.60;;;10.40;99.90;;;;;;5096723;28;20548;-81
2023/05/17 06:09:41;;;;;;;9.80;3.07;;;10.40;52.70;;;;;;5097235;28;20550;-81
2023/05/17 06:12:08;;;;;;;16.53;4.93;;;10.40;95.70;;;;;;5095055;28;20454;-81
2023/05/17 06:14:36;;;;;;;9.57;3.13;;;10.50;77.40;;;;;;5098518;28;20476;-81
2023/05/17 06:17:04;;;;;;;7.60;3.30;;;10.50;12.30;;;;;;5095226;28;20553;-82
2023/05/17 06:19:31;;;;;;;10.40;3.73;;;10.60;38.50;;;;;;5097867;28;20473;-82
2023/05/17 06:21:58;;;;;;;22.37;4.07;;;10.70;16.80;;;;;;5100831;28;20452;-82
2023/05/17 06:24:25;;;;;;;12.10;3.43;;;10.90;35.90;;;;;;5092844;28;20902;-81
2023/05/17 06:26:54;;;;;;;14.13;4.30;;;11.00;1.00;;;;;;5099716;28;20448;-79
2023/05/17 06:29:30;;;;;;;11.00;3.33;;;11.10;1.00;;;;;;5087062;28;20474;-80
2023/05/17 06:31:58;;;;;;;11.20;3.03;;;11.10;1.00;;;;;;5093184;28;20541;-81
2023/05/17 06:34:27;;;;;;;8.90;3.43;;;11.10;1.00;;;;;;5096366;28;20484;-81
2023/05/17 06:36:53;;;;;;;10.10;3.20;;;11.20;1.00;;;;;;5091496;28;20452;-80
2023/05/17 06:39:20;;;;;;;6.60;3.00;;;11.40;1.00;;;;;;5097507;28;20703;-81
2023/05/17 06:41:47;;;;;;;17.17;3.40;;;11.50;1.00;;;;;;5089698;28;20534;-79
2023/05/17 06:44:14;;;;;;;9.10;2.67;;;11.50;1.00;;;;;;5094983;28;20450;-81
2023/05/17 06:46:41;;;;;;;7.67;4.73;;;11.60;1.00;;;;;;5089242;28;20845;-78
2023/05/17 06:49:07;;;;;;;12.97;3.03;;;11.90;1.00;;;;;;5091792;28;20852;-80
2023/05/17 06:51:36;;;;;;;13.37;3.40;;;12.00;1.00;;;;;;5095094;28;20521;-81
2023/05/17 06:54:02;;;;;;;11.63;2.70;;;12.00;1.00;;;;;;5089298;28;20487;-80
2023/05/17 06:56:31;;;;;;;12.00;3.70;;;12.10;1.00;;;;;;5096976;28;20458;-81
2023/05/17 06:58:58;;;;;;;11.20;2.50;;;12.10;99.90;;;;;;5095256;28;20571;-81
2023/05/17 07:01:27;;;;;;;8.67;2.10;;;12.40;99.90;;;;;;5093834;28;20498;-79
2023/05/17 07:03:55;;;;;;;8.03;2.80;;;12.60;99.90;;;;;;5095279;28;20831;-79
2023/05/17 07:06:22;;;;;;;7.80;2.67;;;12.60;99.90;;;;;;5059685;28;20455;-80
2023/05/17 07:08:53;;;;;;;15.50;2.60;;;12.60;99.90;;;;;;5095760;28;20835;-81
2023/05/17 07:11:19;;;;;;;10.53;2.27;;;12.80;1.00;;;;;;5096991;28;20458;-80
2023/05/17 07:13:48;;;;;;;13.03;3.27;;;12.70;99.90;;;;;;5092088;28;20453;-79
2023/05/17 07:16:15;;;;;;;6.43;2.40;;;12.80;1.00;;;;;;5098492;28;20589;-81
2023/05/17 07:18:41;;;;;;;8.50;2.57;;;12.80;1.00;;;;;;5102369;28;20897;-80
2023/05/17 07:21:08;;;;;;;11.10;2.90;;;12.80;1.00;;;;;;5108142;28;20527;-78
2023/05/17 07:23:35;;;;;;;10.47;2.80;;;12.90;1.00;;;;;;5106567;28;20453;-78
2023/05/17 07:26:03;;;;;;;8.23;2.50;;;12.60;99.90;;;;;;5099771;28;20910;-79
2023/05/17 07:28:30;;;;;;;7.33;2.87;;;12.50;1.10;;;;;;5099557;28;20466;-78
2023/05/17 07:30:57;;;;;;;9.43;2.10;;;12.30;30.10;;;;;;5098297;28;20516;-80
2023/05/17 07:33:25;;;;;;;9.70;2.10;;;12.20;99.90;;;;;;5095817;28;20485;-80
2023/05/17 07:35:52;;;;;;;11.67;2.60;;;12.20;99.90;;;;;;5094791;28;20485;-78
2023/05/17 07:38:19;;;;;;;10.53;2.30;;;12.30;99.90;;;;;;5094883;28;20474;-80
2023/05/17 07:40:46;;;;;;;6.47;2.17;;;12.30;99.90;;;;;;5102992;28;20478;-80
2023/05/17 07:43:14;;;;;;;12.73;2.77;;;12.30;99.90;;;;;;5097575;28;20541;-77
2023/05/17 07:45:43;;;;;;;7.57;2.10;;;12.30;99.90;;;;;;5104647;28;20517;-79
2023/05/17 07:48:11;;;;;;;10.50;2.60;;;12.40;99.90;;;;;;5103039;28;20559;-77
2023/05/17 07:50:38;;;;;;;9.03;2.60;;;12.60;99.90;;;;;;5092942;28;20483;-78
2023/05/17 07:53:05;;;;;;;5.80;1.73;;;12.80;99.90;;;;;;5097343;28;20995;-81
2023/05/17 07:55:32;;;;;;;9.27;2.37;;;13.10;14.70;;;;;;5096642;28;20484;-81
2023/05/17 07:57:59;;;;;;;8.13;2.40;;;13.40;1.00;;;;;;5087180;28;20455;-81
2023/05/17 08:00:28;;;;;;;7.00;1.90;;;13.50;1.00;;;;;;5097525;28;20449;-82
2023/05/17 08:02:56;;;;;;;12.80;1.67;;;13.80;1.00;;;;;;5096341;28;20450;-81
2023/05/17 08:05:23;;;;;;;10.73;2.30;;;14.10;1.00;;;;;;5098691;28;20454;-81
2023/05/17 08:07:51;;;;;;;7.40;1.67;;;14.40;1.00;;;;;;5099014;28;20938;-80
2023/05/17 08:10:18;;;;;;;6.50;2.03;;;14.60;1.00;;;;;;5096849;28;20531;-80
2023/05/17 08:12:44;;;;;;;5.57;1.80;;;15.00;1.00;;;;;;5099838;28;20456;-81
2023/05/17 08:15:11;;;;;;;7.37;2.00;;;15.40;1.00;;;;;;5098212;28;20487;-80
2023/05/17 08:17:39;;;;;;;7.23;1.87;;;15.90;1.00;;;;;;5100057;28;20461;-82
2023/05/17 08:20:08;;;;;;;5.93;2.03;;;16.40;1.00;;;;;;5098692;28;20469;-80
2023/05/17 08:22:36;;;;;;;8.60;1.90;;;17.00;1.00;;;;;;5089211;28;20454;-81
2023/05/17 08:25:03;;;;;;;9.73;1.67;;;17.60;99.90;;;;;;5099741;28;20438;-82
2023/05/17 08:27:31;;;;;;;7.60;1.80;;;18.10;99.90;;;;;;5099995;28;20917;-81
2023/05/17 08:29:58;;;;;;;6.13;1.70;;;18.70;99.90;;;;;;5097653;28;20521;-81
2023/05/17 08:32:25;;;;;;;6.20;1.70;;;19.10;99.90;;;;;;5099102;28;20462;-81
2023/05/17 08:34:53;;;;;;;7.10;1.70;;;19.40;99.90;;;;;;5099265;28;20486;-81
2023/05/17 08:37:20;;;;;;;5.43;1.93;;;19.60;99.90;;;;;;5096413;28;20461;-82
2023/05/17 08:39:48;;;;;;;7.87;2.10;;;19.90;99.90;;;;;;5092775;28;20564;-82
2023/05/17 08:42:16;;;;;;;5.10;2.20;;;20.80;99.90;;;;;;5095792;28;20462;-82
2023/05/17 08:44:43;;;;;;;8.10;2.50;;;21.80;99.90;;;;;;5097854;28;20445;-83
2023/05/17 08:47:11;;;;;;;5.17;1.77;;;22.70;99.90;;;;;;5099281;28;20605;-82
2023/05/17 08:49:39;;;;;;;6.10;1.47;;;22.30;99.90;;;;;;5097398;28;20470;-83
2023/05/17 08:52:09;;;;;;;7.97;2.27;;;21.70;99.90;;;;;;5099481;28;20462;-83
2023/05/17 08:54:36;;;;;;;7.83;2.00;;;21.80;99.90;;;;;;5095384;28;20966;-82
2023/05/17 08:57:06;;;;;;;6.20;1.77;;;21.00;99.90;;;;;;5093720;28;20446;-84
2023/05/17 08:59:34;;;;;;;7.33;2.13;;;20.00;99.90;;;;;;5098621;28;20560;-83
2023/05/17 09:02:01;;;;;;;7.37;1.63;;;19.60;99.90;;;;;;5097572;28;20805;-82
2023/05/17 09:04:29;;;;;;;6.10;2.00;;;19.50;99.90;;;;;;5098465;28;20477;-84
2023/05/17 09:06:56;;;;;;;7.33;2.63;;;18.90;99.90;;;;;;5099475;28;20454;-83
2023/05/17 09:09:25;;;;;;;8.27;1.60;;;20.10;99.90;;;;;;5092063;28;20557;-85
2023/05/17 09:11:52;;;;;;;6.83;1.97;;;21.90;99.90;;;;;;5098705;28;20438;-84
2023/05/17 09:14:19;;;;;;;5.80;2.30;;;23.40;99.90;;;;;;5095088;28;20518;-84
2023/05/17 09:16:45;;;;;;;7.17;2.23;;;24.40;99.90;;;;;;5098131;28;20469;-84
2023/05/17 09:19:16;;;;;;;6.10;1.87;;;26.40;99.90;;;;;;5096710;28;20858;-83
2023/05/17 09:21:45;;;;;;;8.53;2.10;;;28.10;99.90;;;;;;5095058;28;20446;-83
2023/05/17 09:24:12;;;;;;;6.47;2.20;;;28.10;99.90;;;;;;5097457;28;20438;-84
2023/05/17 09:26:42;;;;;;;4.57;1.77;;;29.30;99.90;;;;;;5097973;28;20447;-82
2023/05/17 09:29:10;;;;;;;5.50;1.80;;;29.80;99.90;;;;;;5098294;28;20473;-81
2023/05/17 09:31:37;;;;;;;6.63;1.80;;;29.50;99.90;;;;;;5102327;28;20541;-79
2023/05/17 09:34:07;;;;;;;9.40;2.13;;;28.30;99.90;;;;;;5107297;28;20457;-83
2023/05/17 09:36:36;;;;;;;5.93;1.80;;;26.40;99.90;;;;;;5098843;28;20500;-82
2023/05/17 09:39:05;;;;;;;6.43;1.90;;;25.10;99.90;;;;;;5097314;28;20474;-81
2023/05/17 09:41:32;;;;;;;6.97;2.23;;;23.70;99.90;;;;;;5095735;28;20537;-82
2023/05/17 09:44:02;;;;;;;8.10;1.83;;;22.30;99.90;;;;;;5097284;28;20451;-81
2023/05/17 09:46:32;;;;;;;5.83;1.47;;;22.40;99.90;;;;;;5095448;28;20446;-82
2023/05/17 09:49:01;;;;;;;4.40;1.50;;;24.10;99.90;;;;;;5095880;28;20470;-82
2023/05/17 09:51:32;;;;;;;6.83;1.93;;;25.60;99.90;;;;;;5097853;28;20870;-81
2023/05/17 09:54:00;;;;;;;7.70;1.80;;;27.30;99.90;;;;;;5093709;28;20446;-81
2023/05/17 09:56:28;;;;;;;5.37;1.70;;;29.80;99.90;;;;;;5097393;28;20513;-82
2023/05/17 09:58:55;;;;;;;6.20;1.97;;;31.80;99.90;;;;;;5117142;22;21223;-82
2023/05/17 10:01:26;;;;;;;5.40;1.93;;;33.00;99.90;;;;;;5098733;28;20454;-83
2023/05/17 10:03:54;;;;;;;5.13;1.97;;;32.70;99.90;;;;;;5099280;28;20450;-84
2023/05/17 10:06:22;;;;;;;5.23;1.87;;;32.10;99.90;;;;;;5093322;28;20458;-84
2023/05/17 10:08:53;;;;;;;5.97;1.70;;;32.00;99.90;;;;;;5100425;28;20541;-83
2023/05/17 10:11:26;;;;;;;9.10;2.30;;;32.70;99.90;;;;;;5087378;28;20458;-84
2023/05/17 10:14:03;;;;;;;7.73;1.80;;;32.70;99.90;;;;;;5095656;28;20446;-83
2023/05/17 10:16:33;;;;;;;4.90;1.50;;;33.90;99.90;;;;;;5097218;28;20487;-85
2023/05/17 10:19:00;;;;;;;4.77;1.50;;;33.80;99.90;;;;;;5095435;28;20478;-84
2023/05/17 10:21:28;;;;;;;5.33;2.17;;;33.00;99.90;;;;;;5093922;28;20438;-84
2023/05/17 10:23:56;;;;;;;5.47;1.60;;;30.60;99.90;;;;;;5091836;28;20465;-84
2023/05/17 10:26:23;;;;;;;4.97;1.70;;;30.30;99.90;;;;;;5093907;28;20537;-85
2023/05/17 10:28:53;;;;;;;5.90;2.33;;;29.60;99.90;;;;;;5094104;28;20459;-84
2023/05/17 10:31:25;;;;;;;5.07;2.30;;;29.80;99.90;;;;;;5094857;28;20442;-86
2023/05/17 10:33:53;;;;;;;5.03;2.50;;;30.10;99.90;;;;;;5094418;28;20834;-83
2023/05/17 10:36:26;;;;;;;4.60;1.67;;;30.00;99.90;;;;;;5091666;28;20634;-85
2023/05/17 10:38:55;;;;;;;3.73;1.90;;;28.70;99.90;;;;;;5095139;28;20470;-84
2023/05/17 10:41:25;;;;;;;5.30;1.73;;;27.80;99.90;;;;;;5095795;28;21026;-84
2023/05/17 10:43:53;;;;;;;6.53;2.03;;;29.10;99.90;;;;;;5090070;28;20533;-84
2023/05/17 10:46:23;;;;;;;6.90;1.70;;;30.70;99.90;;;;;;5100317;28;20492;-84
2023/05/17 10:48:51;;;;;;;7.97;2.47;;;31.60;99.90;;;;;;5098467;28;20434;-85
2023/05/17 10:51:26;;;;;;;4.97;1.90;;;32.20;99.90;;;;;;5101283;28;20456;-86
2023/05/17 10:54:10;;;;;;;6.00;2.57;;;30.70;99.90;;;;;;5100442;28;20519;-85
2023/05/17 10:56:40;;;;;;;10.40;2.27;;;28.00;99.90;;;;;;5099868;28;20486;-85
2023/05/17 10:59:22;;;;;;;4.97;2.00;;;26.80;99.90;;;;;;5100401;28;20493;-84
2023/05/17 11:01:54;;;;;;;4.03;2.07;;;26.70;99.90;;;;;;5105537;28;20536;-85
2023/05/17 11:04:24;;;;;;;7.47;1.90;;;29.10;99.90;;;;;;5107561;28;20473;-84
2023/05/17 11:07:11;;;;;;;6.37;2.00;;;30.80;99.90;;;;;;5101694;28;20461;-85
2023/05/17 11:09:40;;;;;;;8.80;2.50;;;32.10;99.90;;;;;;5086813;28;20481;-84
2023/05/17 11:12:08;;;;;;;5.70;2.00;;;32.70;99.90;;;;;;5094000;28;20467;-85
2023/05/17 11:14:49;;;;;;;6.77;2.47;;;33.90;99.90;;;;;;5098305;28;20446;-84
2023/05/17 11:17:18;;;;;;;4.43;1.60;;;34.20;99.90;;;;;;5097071;28;20836;-85
2023/05/17 11:20:26;;;;;;;5.70;1.97;;;35.70;99.90;;;;;;5097453;28;20469;-85
2023/05/17 11:22:58;;;;;;;4.40;1.63;;;34.70;99.90;;;;;;5066969;28;20575;-86
2023/05/17 11:25:28;;;;;;;4.10;1.90;;;33.60;99.90;;;;;;5098518;28;20513;-84
2023/05/17 11:27:55;;;;;;;7.10;1.77;;;32.80;99.90;;;;;;5094549;28;20537;-83
2023/05/17 11:30:25;;;;;;;5.50;1.90;;;33.40;99.90;;;;;;5097881;28;20476;-82
2023/05/17 11:32:53;;;;;;;5.13;1.73;;;34.60;99.90;;;;;;5094613;28;20986;-85
2023/05/17 11:35:25;;;;;;;8.27;2.40;;;34.70;99.90;;;;;;5094514;28;20577;-83
2023/05/17 11:37:53;;;;;;;4.77;1.80;;;35.30;99.90;;;;;;5101817;28;20829;-84
2023/05/17 11:40:27;;;;;;;5.27;1.63;;;35.00;99.90;;;;;;5098926;28;20481;-85
2023/05/17 11:43:13;;;;;;;4.07;1.67;;;35.70;99.90;;;;;;5102647;28;20450;-84
2023/05/17 11:45:46;;;;;;;4.00;2.00;;;37.20;99.90;;;;;;5100045;28;20454;-85
2023/05/17 11:48:15;;;;;;;3.87;1.70;;;36.00;99.90;;;;;;5096934;28;20454;-85
2023/05/17 11:50:45;;;;;;;7.03;2.03;;;35.90;99.90;;;;;;5100884;28;20500;-85
2023/05/17 11:53:13;;;;;;;7.70;1.90;;;34.90;99.90;;;;;;5102580;28;20517;-86
2023/05/17 11:55:44;;;;;;;5.13;1.73;;;35.70;99.90;;;;;;5104998;28;20482;-86
2023/05/17 11:58:13;;;;;;;5.70;1.57;;;37.00;99.90;;;;;;5107470;28;20446;-85
2023/05/17 12:00:41;;;;;;;6.07;2.13;;;37.30;99.90;;;;;;5110866;28;20492;-84
2023/05/17 12:03:18;;;;;;;5.70;1.80;;;36.30;99.90;;;;;;5103419;28;20462;-84
2023/05/17 12:05:47;;;;;;;4.83;1.90;;;35.70;99.90;;;;;;5100600;28;20552;-84
2023/05/17 12:08:17;;;;;;;7.40;2.13;;;34.20;99.90;;;;;;5104765;28;20458;-84
2023/05/17 12:10:50;;;;;;;6.03;1.53;;;32.20;99.90;;;;;;5089543;28;20466;-84
2023/05/17 12:13:17;;;;;;;5.20;1.80;;;30.50;99.90;;;;;;5105382;28;20510;-84
2023/05/17 12:15:48;;;;;;;5.90;1.60;;;32.20;99.90;;;;;;5104477;28;20482;-84
2023/05/17 12:18:37;;;;;;;3.97;1.40;;;33.60;99.90;;;;;;5101202;28;20454;-84
2023/05/17 12:21:14;;;;;;;4.70;1.80;;;33.20;99.90;;;;;;5106565;28;20469;-85
2023/05/17 12:23:48;;;;;;;6.80;2.10;;;31.60;99.90;;;;;;5125269;28;20464;-86
2023/05/17 12:29:35;;;;;;;5.03;1.50;;;28.20;99.90;;;;;;5361274;22;20545;-83
2023/05/17 12:32:02;;;;;;;4.67;1.40;;;29.80;99.90;;;;;;5085942;28;20470;-83
2023/05/17 12:34:30;;;;;;;3.30;1.77;;;28.70;99.90;;;;;;5074544;28;20443;-84
2023/05/17 12:36:58;;;;;;;6.33;2.17;;;27.10;99.90;;;;;;5071370;28;20565;-84
2023/05/17 12:39:25;;;;;;;5.23;1.90;;;26.20;99.90;;;;;;5071297;28;20487;-83
2023/05/17 12:41:53;;;;;;;6.27;2.20;;;25.20;99.90;;;;;;5062986;28;21199;-84
2023/05/17 12:44:20;;;;;;;6.47;1.90;;;27.00;99.90;;;;;;5064309;28;20462;-85
2023/05/17 12:46:52;;;;;;;4.30;1.20;;;29.90;99.90;;;;;;5065008;28;20537;-85
2023/05/17 12:49:21;;;;;;;4.90;1.83;;;32.60;99.90;;;;;;5065309;28;20521;-85
2023/05/17 12:51:49;;;;;;;3.23;1.47;;;32.90;99.90;;;;;;5065648;28;20937;-85
2023/05/17 12:54:27;;;;;;;4.67;1.30;;;31.80;99.90;;;;;;5064197;28;20494;-85
2023/05/17 12:56:54;;;;;;;4.57;1.43;;;29.30;99.90;;;;;;5065695;28;20463;-85
2023/05/17 12:59:24;;;;;;;9.37;2.00;;;27.60;99.90;;;;;;5063043;28;20472;-85